Time,TemperatureF,DewpointF,PressureIn,WindDirection,WindDirectionDegrees,WindSpeedMPH,WindSpeedGustMPH,Humidity,HourlyPrecipIn,Conditions,Clouds,dailyrainin,SoftwareType,DateUTC
2013-02-21 00:03:00,59.0,56.0,30.09,ENE,74,2.0,5.0,90,0.00,,,0.00,,2013-02-21 05:03:00,
2013-02-21 00:12:00,59.0,56.0,30.09,ENE,74,2.0,5.0,90,0.00,,,0.00,,2013-02-21 05:12:00,
2013-02-21 00:22:00,59.0,56.0,30.09,East,88,1.0,4.0,89,0.00,,,0.00,,2013-02-21 05:22:00,
2013-02-21 00:35:00,59.0,56.0,30.09,ESE,122,2.0,5.0,90,0.00,,,0.00,,2013-02-21 05:35:00,
2013-02-21 00:45:00,59.0,56.0,30.09,ESE,122,2.0,5.0,90,0.00,,,0.00,,2013-02-21 05:45:00,
2013-02-21 01:01:00,59.0,56.0,30.08,East,97,1.0,4.0,90,0.00,,,0.00,,2013-02-21 06:01:00,
2013-02-21 01:11:00,59.0,56.0,30.08,East,88,1.0,3.0,90,0.00,,,0.00,,2013-02-21 06:11:00,
2013-02-21 01:21:00,58.0,55.0,30.08,East,87,0.0,3.0,91,0.00,,,0.00,,2013-02-21 06:21:00,
2013-02-21 01:31:00,58.0,55.0,30.07,East,87,0.0,2.0,91,0.00,,,0.00,,2013-02-21 06:31:00,
2013-02-21 01:41:00,58.0,55.0,30.07,East,87,0.0,2.0,91,0.00,,,0.00,,2013-02-21 06:41:00,
2013-02-21 01:52:00,58.0,55.0,30.08,East,87,0.0,2.0,91,0.00,,,0.00,,2013-02-21 06:52:00,
2013-02-21 02:01:00,58.0,55.0,30.07,ENE,75,1.0,3.0,91,0.00,,,0.00,,2013-02-21 07:01:00,
2013-02-21 02:11:00,58.0,55.0,30.07,ENE,75,1.0,3.0,91,0.00,,,0.00,,2013-02-21 07:11:00,
2013-02-21 02:21:00,58.0,55.0,30.07,ENE,75,0.0,3.0,91,0.00,,,0.00,,2013-02-21 07:21:00,
2013-02-21 02:32:00,57.0,55.0,30.06,ENE,70,0.0,3.0,92,0.00,,,0.00,,2013-02-21 07:32:00,
2013-02-21 02:42:00,57.0,55.0,30.06,NE,42,1.0,3.0,93,0.00,,,0.00,,2013-02-21 07:42:00,
2013-02-21 02:52:00,57.0,55.0,30.06,NE,42,1.0,3.0,93,0.00,,,0.00,,2013-02-21 07:52:00,
2013-02-21 03:01:00,57.0,55.0,30.06,NE,51,2.0,5.0,93,0.00,,,0.00,,2013-02-21 08:01:00,
2013-02-21 03:11:00,57.0,55.0,30.06,NE,51,2.0,5.0,93,0.00,,,0.00,,2013-02-21 08:11:00,
2013-02-21 03:21:00,58.0,56.0,30.06,NE,49,1.0,5.0,92,0.00,,,0.00,,2013-02-21 08:21:00,
2013-02-21 03:32:00,58.0,56.0,30.05,NE,49,2.0,4.0,92,0.00,,,0.00,,2013-02-21 08:32:00,
2013-02-21 03:42:00,58.0,56.0,30.05,NE,49,2.0,4.0,92,0.00,,,0.00,,2013-02-21 08:42:00,
2013-02-21 03:52:00,58.0,56.0,30.05,NNE,30,2.0,3.0,92,0.00,,,0.00,,2013-02-21 08:52:00,
2013-02-21 04:01:00,57.0,55.0,30.05,NE,43,2.0,5.0,93,0.00,,,0.00,,2013-02-21 09:01:00,
2013-02-21 04:11:00,57.0,55.0,30.05,NE,43,2.0,5.0,93,0.00,,,0.00,,2013-02-21 09:11:00,
2013-02-21 04:22:00,58.0,56.0,30.05,NE,46,2.0,6.0,93,0.00,,,0.00,,2013-02-21 09:22:00,
2013-02-21 04:32:00,57.0,55.0,30.05,NE,40,1.0,5.0,93,0.00,,,0.00,,2013-02-21 09:32:00,
2013-02-21 04:42:00,57.0,55.0,30.05,NE,40,1.0,5.0,93,0.00,,,0.00,,2013-02-21 09:42:00,
2013-02-21 04:52:00,57.0,55.0,30.05,NNE,22,2.0,5.0,93,0.00,,,0.00,,2013-02-21 09:52:00,
2013-02-21 05:01:00,57.0,55.0,30.06,NNE,32,2.0,6.0,94,0.00,,,0.00,,2013-02-21 10:01:00,
2013-02-21 05:11:00,57.0,55.0,30.06,NNE,32,2.0,6.0,94,0.00,,,0.00,,2013-02-21 10:11:00,
2013-02-21 05:21:00,57.0,55.0,30.06,NNE,33,2.0,5.0,94,0.00,,,0.00,,2013-02-21 10:21:00,
2013-02-21 05:31:00,57.0,55.0,30.07,NNE,15,1.0,5.0,94,0.00,,,0.00,,2013-02-21 10:31:00,
2013-02-21 05:41:00,57.0,55.0,30.07,NNE,15,1.0,5.0,94,0.00,,,0.00,,2013-02-21 10:41:00,
2013-02-21 05:51:00,56.0,55.0,30.06,NE,34,2.0,5.0,95,0.00,,,0.00,,2013-02-21 10:51:00,
2013-02-21 06:01:00,56.0,55.0,30.07,NE,34,2.0,4.0,95,0.00,,,0.00,,2013-02-21 11:01:00,
2013-02-21 06:11:00,56.0,55.0,30.07,NE,34,2.0,4.0,95,0.00,,,0.00,,2013-02-21 11:11:00,
2013-02-21 06:21:00,56.0,55.0,30.07,NE,36,2.0,5.0,95,0.00,,,0.00,,2013-02-21 11:21:00,
2013-02-21 06:31:00,56.0,55.0,30.08,NNE,24,1.0,4.0,95,0.00,,,0.00,,2013-02-21 11:31:00,
2013-02-21 06:41:00,56.0,55.0,30.08,NNE,24,1.0,4.0,95,0.00,,,0.00,,2013-02-21 11:41:00,
2013-02-21 06:52:00,56.0,55.0,30.08,NE,36,1.0,3.0,95,0.00,,,0.00,,2013-02-21 11:52:00,
2013-02-21 07:01:00,56.0,55.0,30.08,NE,34,0.0,2.0,96,0.00,,,0.00,,2013-02-21 12:01:00,
2013-02-21 07:11:00,56.0,55.0,30.08,NE,34,0.0,2.0,96,0.00,,,0.00,,2013-02-21 12:11:00,
2013-02-21 07:22:00,56.0,55.0,30.08,NE,34,0.0,1.0,96,0.00,,,0.00,,2013-02-21 12:22:00,
2013-02-21 07:32:00,55.0,54.0,30.09,NE,34,0.0,1.0,96,0.00,,,0.00,,2013-02-21 12:32:00,
2013-02-21 07:43:00,55.0,54.0,30.09,NE,34,0.0,1.0,96,0.00,,,0.00,,2013-02-21 12:43:00,
2013-02-21 07:53:00,57.0,56.0,30.08,SE,126,1.0,3.0,97,0.00,,,0.00,,2013-02-21 12:53:00,
2013-02-21 08:02:00,59.0,58.0,30.10,ENE,65,1.0,3.0,97,0.00,,,0.00,,2013-02-21 13:02:00,
2013-02-21 08:12:00,59.0,58.0,30.10,ENE,65,1.0,3.0,97,0.00,,,0.00,,2013-02-21 13:12:00,
2013-02-21 08:22:00,60.0,59.0,30.10,NE,46,1.0,4.0,96,0.00,,,0.00,,2013-02-21 13:22:00,
2013-02-21 08:32:00,61.0,59.0,30.11,NE,41,0.0,4.0,94,0.00,,,0.00,,2013-02-21 13:32:00,
2013-02-21 08:42:00,61.0,59.0,30.11,NE,41,0.0,4.0,94,0.00,,,0.00,,2013-02-21 13:42:00,
2013-02-21 08:52:00,62.0,59.0,30.11,ENE,69,2.0,6.0,91,0.00,,,0.00,,2013-02-21 13:52:00,
2013-02-21 09:02:00,64.0,61.0,30.12,NNE,32,3.0,7.0,89,0.00,,,0.00,,2013-02-21 14:02:00,
2013-02-21 09:11:00,64.0,61.0,30.12,NNE,32,3.0,7.0,89,0.00,,,0.00,,2013-02-21 14:11:00,
2013-02-21 09:22:00,65.0,61.0,30.13,ENE,62,2.0,5.0,87,0.00,,,0.00,,2013-02-21 14:22:00,
2013-02-21 09:32:00,67.0,62.0,30.13,ENE,76,3.0,7.0,83,0.00,,,0.00,,2013-02-21 14:32:00,
2013-02-21 09:42:00,67.0,62.0,30.13,ENE,76,3.0,7.0,83,0.00,,,0.00,,2013-02-21 14:42:00,
2013-02-21 09:52:00,68.0,62.0,30.13,East,88,3.0,7.0,82,0.00,,,0.00,,2013-02-21 14:52:00,
2013-02-21 10:02:00,70.0,64.0,30.13,ESE,120,3.0,7.0,80,0.00,,,0.00,,2013-02-21 15:02:00,
2013-02-21 10:12:00,70.0,64.0,30.13,ESE,120,3.0,7.0,80,0.00,,,0.00,,2013-02-21 15:12:00,
2013-02-21 10:22:00,71.0,64.0,30.13,East,83,4.0,9.0,79,0.00,,,0.00,,2013-02-21 15:22:00,
2013-02-21 10:32:00,73.0,65.0,30.13,ENE,59,4.0,8.0,76,0.00,,,0.00,,2013-02-21 15:32:00,
2013-02-21 10:42:00,73.0,65.0,30.13,ENE,59,4.0,8.0,76,0.00,,,0.00,,2013-02-21 15:42:00,
2013-02-21 10:52:00,74.0,65.0,30.13,SE,145,5.0,8.0,73,0.00,,,0.00,,2013-02-21 15:52:00,
2013-02-21 11:02:00,76.0,65.0,30.12,ESE,115,4.0,10.0,69,0.00,,,0.00,,2013-02-21 16:02:00,
2013-02-21 11:12:00,76.0,65.0,30.12,ESE,115,4.0,10.0,69,0.00,,,0.00,,2013-02-21 16:12:00,
2013-02-21 11:22:00,77.0,65.0,30.12,South,169,1.0,11.0,67,0.00,,,0.00,,2013-02-21 16:22:00,
2013-02-21 11:32:00,78.0,65.0,30.12,ESE,109,4.0,8.0,64,0.00,,,0.00,,2013-02-21 16:32:00,
2013-02-21 11:42:00,80.0,66.0,30.11,South,172,2.0,7.0,62,0.00,,,0.00,,2013-02-21 16:42:00,
2013-02-21 11:52:00,80.0,66.0,30.11,South,172,2.0,7.0,62,0.00,,,0.00,,2013-02-21 16:52:00,
2013-02-21 12:01:00,79.0,65.0,30.11,SE,134,2.0,8.0,63,0.00,,,0.00,,2013-02-21 17:01:00,
2013-02-21 12:11:00,79.0,65.0,30.11,SE,134,2.0,8.0,63,0.00,,,0.00,,2013-02-21 17:11:00,
2013-02-21 12:21:00,78.0,64.0,30.11,SSW,207,1.0,4.0,63,0.00,,,0.00,,2013-02-21 17:21:00,
2013-02-21 12:32:00,81.0,65.0,30.09,SE,128,3.0,9.0,58,0.00,,,0.00,,2013-02-21 17:32:00,
2013-02-21 12:42:00,81.0,65.0,30.09,SE,128,3.0,9.0,58,0.00,,,0.00,,2013-02-21 17:42:00,
2013-02-21 12:52:00,79.0,63.0,30.09,South,180,3.0,7.0,59,0.00,,,0.00,,2013-02-21 17:52:00,
2013-02-21 13:02:00,82.0,65.0,30.08,SSE,163,3.0,11.0,57,0.00,,,0.00,,2013-02-21 18:02:00,
2013-02-21 13:12:00,82.0,65.0,30.08,SSE,163,3.0,11.0,57,0.00,,,0.00,,2013-02-21 18:12:00,
2013-02-21 13:22:00,82.0,63.0,30.08,ESE,123,3.0,8.0,53,0.00,,,0.00,,2013-02-21 18:22:00,
2013-02-21 13:32:00,81.0,64.0,30.07,SE,128,2.0,10.0,56,0.00,,,0.00,,2013-02-21 18:32:00,
2013-02-21 13:42:00,81.0,64.0,30.07,SE,128,2.0,10.0,56,0.00,,,0.00,,2013-02-21 18:42:00,
2013-02-21 13:52:00,82.0,63.0,30.06,South,172,1.0,8.0,53,0.00,,,0.00,,2013-02-21 18:52:00,
2013-02-21 14:01:00,81.0,63.0,30.06,SE,138,1.0,5.0,54,0.00,,,0.00,,2013-02-21 19:01:00,
2013-02-21 14:12:00,81.0,63.0,30.06,SE,138,1.0,5.0,54,0.00,,,0.00,,2013-02-21 19:12:00,
2013-02-21 14:21:00,83.0,63.0,30.05,SW,215,2.0,7.0,51,0.00,,,0.00,,2013-02-21 19:21:00,
2013-02-21 14:32:00,83.0,62.0,30.04,WSW,237,2.0,7.0,50,0.00,,,0.00,,2013-02-21 19:32:00,
2013-02-21 14:42:00,83.0,62.0,30.04,WSW,237,2.0,7.0,50,0.00,,,0.00,,2013-02-21 19:42:00,
2013-02-21 14:52:00,84.0,62.0,30.04,East,99,3.0,9.0,47,0.00,,,0.00,,2013-02-21 19:52:00,
2013-02-21 15:01:00,83.0,60.0,30.03,South,174,2.0,8.0,46,0.00,,,0.00,,2013-02-21 20:01:00,
2013-02-21 15:11:00,82.0,62.0,30.03,SW,233,1.0,7.0,51,0.00,,,0.00,,2013-02-21 20:11:00,
2013-02-21 15:21:00,82.0,62.0,30.03,SW,233,1.0,7.0,51,0.00,,,0.00,,2013-02-21 20:21:00,
2013-02-21 15:32:00,83.0,62.0,30.02,SSE,148,2.0,7.0,50,0.00,,,0.00,,2013-02-21 20:32:00,
2013-02-21 15:42:00,83.0,62.0,30.02,SSE,148,2.0,7.0,50,0.00,,,0.00,,2013-02-21 20:42:00,
2013-02-21 15:53:00,83.0,62.0,30.02,SSE,167,2.0,6.0,49,0.00,,,0.00,,2013-02-21 20:53:00,
2013-02-21 16:02:00,84.0,62.0,30.02,SE,139,3.0,7.0,47,0.00,,,0.00,,2013-02-21 21:02:00,
2013-02-21 16:12:00,84.0,62.0,30.02,SE,139,3.0,7.0,47,0.00,,,0.00,,2013-02-21 21:12:00,
2013-02-21 16:22:00,83.0,61.0,30.02,ESE,115,1.0,6.0,47,0.00,,,0.00,,2013-02-21 21:22:00,
2013-02-21 16:32:00,83.0,62.0,30.01,WSW,238,2.0,6.0,49,0.00,,,0.00,,2013-02-21 21:32:00,
2013-02-21 16:42:00,83.0,61.0,30.01,SSE,151,2.0,5.0,48,0.00,,,0.00,,2013-02-21 21:42:00,
2013-02-21 16:52:00,83.0,61.0,30.01,SSE,151,2.0,5.0,48,0.00,,,0.00,,2013-02-21 21:52:00,
2013-02-21 17:01:00,82.0,61.0,30.01,SSE,164,1.0,6.0,50,0.00,,,0.00,,2013-02-21 22:01:00,
2013-02-21 17:11:00,82.0,61.0,30.01,SSE,164,1.0,6.0,50,0.00,,,0.00,,2013-02-21 22:11:00,
2013-02-21 17:21:00,81.0,61.0,30.01,South,181,1.0,5.0,51,0.00,,,0.00,,2013-02-21 22:21:00,
2013-02-21 17:32:00,81.0,61.0,30.01,South,181,1.0,5.0,51,0.00,,,0.00,,2013-02-21 22:32:00,
2013-02-21 17:42:00,81.0,61.0,30.01,South,181,1.0,5.0,51,0.00,,,0.00,,2013-02-21 22:42:00,
2013-02-21 17:52:00,80.0,62.0,30.00,ESE,115,3.0,9.0,54,0.00,,,0.00,,2013-02-21 22:52:00,
2013-02-21 18:01:00,79.0,62.0,30.01,SE,142,0.0,3.0,56,0.00,,,0.00,,2013-02-21 23:01:00,
2013-02-21 18:11:00,79.0,62.0,30.01,SE,142,0.0,3.0,56,0.00,,,0.00,,2013-02-21 23:11:00,
2013-02-21 18:21:00,77.0,62.0,30.00,SE,142,0.0,2.0,60,0.00,,,0.00,,2013-02-21 23:21:00,
2013-02-21 18:32:00,77.0,62.0,30.00,SE,142,0.0,2.0,60,0.00,,,0.00,,2013-02-21 23:32:00,
2013-02-21 18:42:00,77.0,62.0,30.00,SE,142,0.0,2.0,60,0.00,,,0.00,,2013-02-21 23:42:00,
2013-02-21 18:53:00,75.0,64.0,30.02,SE,142,0.0,1.0,68,0.00,,,0.00,,2013-02-21 23:53:00,
2013-02-21 19:01:00,74.0,64.0,30.01,SE,142,0.0,0.0,71,0.00,,,0.00,,2013-02-22 00:01:00,
2013-02-21 19:11:00,74.0,64.0,30.01,SE,142,0.0,0.0,71,0.00,,,0.00,,2013-02-22 00:11:00,
2013-02-21 19:22:00,72.0,63.0,30.02,SE,142,0.0,0.0,73,0.00,,,0.00,,2013-02-22 00:22:00,
2013-02-21 19:32:00,71.0,62.0,30.02,SE,142,0.0,0.0,74,0.00,,,0.00,,2013-02-22 00:32:00,
2013-02-21 19:42:00,71.0,62.0,30.02,SE,142,0.0,0.0,74,0.00,,,0.00,,2013-02-22 00:42:00,
2013-02-21 19:52:00,71.0,62.0,30.02,SE,142,0.0,0.0,74,0.00,,,0.00,,2013-02-22 00:52:00,
2013-02-21 20:01:00,72.0,64.0,30.03,SW,222,0.0,6.0,75,0.00,,,0.00,,2013-02-22 01:01:00,
2013-02-21 20:11:00,72.0,64.0,30.03,SW,222,0.0,6.0,75,0.00,,,0.00,,2013-02-22 01:11:00,
2013-02-21 20:22:00,70.0,63.0,30.03,WSW,246,0.0,2.0,78,0.00,,,0.00,,2013-02-22 01:22:00,
2013-02-21 20:32:00,70.0,64.0,30.04,West,268,0.0,3.0,80,0.00,,,0.00,,2013-02-22 01:32:00,
2013-02-21 20:42:00,70.0,64.0,30.04,West,268,0.0,3.0,80,0.00,,,0.00,,2013-02-22 01:42:00,
2013-02-21 20:52:00,69.0,63.0,30.04,West,269,1.0,3.0,82,0.00,,,0.00,,2013-02-22 01:52:00,
2013-02-21 21:02:00,69.0,63.0,30.04,WNW,286,1.0,3.0,82,0.00,,,0.00,,2013-02-22 02:02:00,
2013-02-21 21:11:00,69.0,63.0,30.04,WNW,286,1.0,3.0,82,0.00,,,0.00,,2013-02-22 02:11:00,
2013-02-21 21:21:00,69.0,64.0,30.04,WNW,286,0.0,0.0,83,0.00,,,0.00,,2013-02-22 02:21:00,
2013-02-21 21:32:00,68.0,63.0,30.05,WNW,286,0.0,0.0,85,0.00,,,0.00,,2013-02-22 02:32:00,
2013-02-21 21:42:00,68.0,63.0,30.05,WNW,286,0.0,0.0,85,0.00,,,0.00,,2013-02-22 02:42:00,
2013-02-21 21:52:00,68.0,64.0,30.05,SW,234,1.0,3.0,86,0.00,,,0.00,,2013-02-22 02:52:00,
2013-02-21 22:02:00,68.0,63.0,30.06,NNE,24,0.0,8.0,85,0.00,,,0.00,,2013-02-22 03:02:00,
2013-02-21 22:11:00,68.0,63.0,30.06,NNE,24,0.0,8.0,85,0.00,,,0.00,,2013-02-22 03:11:00,
2013-02-21 22:21:00,69.0,64.0,30.06,East,92,0.0,3.0,84,0.00,,,0.00,,2013-02-22 03:21:00,
2013-02-21 22:32:00,67.0,63.0,30.06,East,92,0.0,0.0,86,0.00,,,0.00,,2013-02-22 03:32:00,
2013-02-21 22:42:00,67.0,63.0,30.06,East,92,0.0,0.0,86,0.00,,,0.00,,2013-02-22 03:42:00,
2013-02-21 22:52:00,66.0,63.0,30.06,East,92,0.0,0.0,89,0.00,,,0.00,,2013-02-22 03:52:00,
2013-02-21 23:02:00,66.0,63.0,30.06,East,92,0.0,0.0,89,0.00,,,0.00,,2013-02-22 04:02:00,
2013-02-21 23:11:00,66.0,63.0,30.06,East,92,0.0,0.0,89,0.00,,,0.00,,2013-02-22 04:11:00,
2013-02-21 23:21:00,65.0,63.0,30.05,ESE,114,0.0,3.0,92,0.00,,,0.00,,2013-02-22 04:21:00,
2013-02-21 23:32:00,65.0,63.0,30.05,ESE,114,0.0,0.0,92,0.00,,,0.00,,2013-02-22 04:32:00,
2013-02-21 23:42:00,65.0,63.0,30.05,ESE,114,0.0,0.0,92,0.00,,,0.00,,2013-02-22 04:42:00,
2013-02-21 23:52:00,65.0,63.0,30.05,SE,130,0.0,3.0,92,0.00,,,0.00,,2013-02-22 04:52:00,